createdAt,value
2018-07-31T00:02:47.297Z,4.40
2018-07-31T00:07:51.284Z,5.63
2018-07-31T00:12:54.817Z,4.87
2018-07-31T00:17:58.753Z,4.50
2018-07-31T00:23:02.311Z,4.77
2018-07-31T00:28:05.810Z,5.73
2018-07-31T00:33:09.491Z,4.77
2018-07-31T00:38:13.102Z,5.13
2018-07-31T00:43:16.861Z,5.80
2018-07-31T00:48:20.357Z,6.50
2018-07-31T00:53:23.933Z,6.10
2018-07-31T00:58:27.483Z,6.87
2018-07-31T01:03:31.012Z,5.73
2018-07-31T01:08:34.592Z,5.80
2018-07-31T01:13:38.699Z,6.23
2018-07-31T01:18:42.185Z,6.07
2018-07-31T01:23:45.741Z,6.60
2018-07-31T01:28:49.213Z,5.63
2018-07-31T01:33:53.105Z,5.47
2018-07-31T01:38:56.673Z,5.50
2018-07-31T01:44:00.245Z,6.17
2018-07-31T01:49:03.821Z,6.20
2018-07-31T01:54:07.414Z,5.27
2018-07-31T01:59:10.937Z,5.97
2018-07-31T02:04:14.498Z,4.83
2018-07-31T02:09:18.251Z,5.07
2018-07-31T02:14:21.881Z,5.30
2018-07-31T02:19:25.424Z,6.43
2018-07-31T02:24:29.029Z,6.27
2018-07-31T02:29:37.982Z,6.27
2018-07-31T02:34:41.529Z,6.17
2018-07-31T02:39:45.130Z,6.03
2018-07-31T02:44:56.909Z,5.83
2018-07-31T02:50:00.534Z,6.13
2018-07-31T02:55:04.177Z,6.33
2018-07-31T03:00:08.907Z,7.13
2018-07-31T03:05:12.950Z,5.63
2018-07-31T03:10:16.532Z,6.40
2018-07-31T03:15:20.168Z,6.23
2018-07-31T03:20:23.682Z,5.93
2018-07-31T03:25:27.412Z,6.40
2018-07-31T03:30:31.454Z,5.33
2018-07-31T03:35:35.137Z,6.23
2018-07-31T03:40:38.657Z,6.43
2018-07-31T03:45:42.576Z,6.87
2018-07-31T03:50:46.199Z,8.20
2018-07-31T03:55:49.785Z,5.73
2018-07-31T04:00:53.237Z,7.33
2018-07-31T04:05:56.808Z,7.90
2018-07-31T04:11:00.275Z,7.67
2018-07-31T04:16:03.870Z,7.33
2018-07-31T04:21:07.602Z,8.83
2018-07-31T04:26:11.640Z,8.60
2018-07-31T04:31:15.154Z,8.70
2018-07-31T04:36:19.036Z,7.50
2018-07-31T04:41:22.708Z,8.83
2018-07-31T04:46:26.301Z,9.03
2018-07-31T04:51:29.848Z,8.57
2018-07-31T04:56:33.535Z,8.03
2018-07-31T05:01:37.144Z,9.57
2018-07-31T05:06:40.691Z,8.67
2018-07-31T05:11:44.222Z,7.47
2018-07-31T05:16:47.929Z,8.77
2018-07-31T05:21:51.478Z,10.37
2018-07-31T05:26:55.096Z,10.70
2018-07-31T05:31:58.774Z,10.03
2018-07-31T05:37:02.367Z,10.80
2018-07-31T05:42:05.913Z,11.77
2018-07-31T05:47:09.501Z,11.70
2018-07-31T05:52:13.148Z,12.03
2018-07-31T05:57:16.859Z,12.27
2018-07-31T06:02:20.318Z,10.40
2018-07-31T06:07:23.890Z,12.30
2018-07-31T06:12:28.682Z,12.53
2018-07-31T06:17:32.349Z,12.27
2018-07-31T06:22:37.655Z,13.00
2018-07-31T06:27:41.744Z,13.13
2018-07-31T06:32:45.477Z,12.57
2018-07-31T06:37:49.133Z,13.17
2018-07-31T06:42:54.276Z,12.87
2018-07-31T06:48:00.254Z,11.63
2018-07-31T06:53:03.905Z,11.37
2018-07-31T06:58:07.982Z,11.97
2018-07-31T07:03:11.469Z,14.63
2018-07-31T07:08:15.287Z,10.63
2018-07-31T07:13:19.204Z,13.70
2018-07-31T07:18:22.837Z,13.70
2018-07-31T07:23:26.487Z,13.80
2018-07-31T07:28:30.155Z,14.73
2018-07-31T07:33:34.322Z,12.63
2018-07-31T07:38:38.034Z,14.43
2018-07-31T07:43:43.403Z,13.37
2018-07-31T07:48:46.986Z,11.73
2018-07-31T07:53:51.335Z,11.53
2018-07-31T07:58:55.035Z,10.60
2018-07-31T08:03:58.630Z,12.00
2018-07-31T08:09:04.739Z,12.00
2018-07-31T08:14:08.394Z,11.43
2018-07-31T08:19:12.405Z,13.00
2018-07-31T08:24:16.627Z,10.80
2018-07-31T08:29:20.261Z,10.43
2018-07-31T08:34:23.959Z,10.53
2018-07-31T08:39:27.773Z,10.30
2018-07-31T08:44:31.353Z,9.50
2018-07-31T08:49:35.197Z,9.03
2018-07-31T08:54:38.847Z,7.07
2018-07-31T08:59:42.691Z,9.57
2018-07-31T09:04:46.286Z,7.57
2018-07-31T09:09:50.431Z,8.17
2018-07-31T09:14:54.118Z,11.93
2018-07-31T09:19:57.767Z,6.70
2018-07-31T09:25:02.088Z,5.47
2018-07-31T09:30:09.715Z,6.40
2018-07-31T09:35:13.322Z,4.60
2018-07-31T09:40:17.009Z,5.30
2018-07-31T09:45:20.892Z,4.57
2018-07-31T09:50:24.473Z,4.20
2018-07-31T09:55:28.072Z,3.57
2018-07-31T10:00:37.026Z,4.53
2018-07-31T10:05:40.615Z,3.57
2018-07-31T10:10:44.258Z,3.00
2018-07-31T10:15:47.819Z,3.07
2018-07-31T10:20:51.600Z,2.93
2018-07-31T10:25:55.234Z,2.83
2018-07-31T10:30:58.951Z,4.10
2018-07-31T10:36:03.082Z,2.60
2018-07-31T10:41:06.805Z,2.70
2018-07-31T10:46:10.436Z,2.57
2018-07-31T10:51:14.121Z,3.83
2018-07-31T10:56:17.691Z,2.90
2018-07-31T11:01:21.398Z,2.50
2018-07-31T11:06:25.123Z,3.47
2018-07-31T11:11:28.737Z,2.70
2018-07-31T11:16:32.438Z,1.97
2018-07-31T11:21:36.003Z,3.00
2018-07-31T11:26:39.796Z,2.80
2018-07-31T11:31:43.366Z,2.13
2018-07-31T11:36:47.478Z,2.00
2018-07-31T11:41:51.061Z,1.90
2018-07-31T11:46:54.613Z,3.10
2018-07-31T11:51:58.368Z,2.43
2018-07-31T11:57:01.929Z,2.27
2018-07-31T12:02:05.596Z,3.13
2018-07-31T12:07:18.647Z,3.17
2018-07-31T12:12:22.275Z,3.27
2018-07-31T12:17:26.793Z,2.50
2018-07-31T12:22:31.028Z,3.13
2018-07-31T12:27:35.397Z,3.43
2018-07-31T12:32:39.807Z,3.37
2018-07-31T12:37:43.454Z,2.30
2018-07-31T12:42:48.369Z,2.80
2018-07-31T12:47:54.528Z,2.57
2018-07-31T12:53:00.343Z,3.03
2018-07-31T12:58:06.092Z,2.67
2018-07-31T13:03:11.927Z,2.97
2018-07-31T13:08:16.601Z,2.53
2018-07-31T13:13:22.271Z,3.00
2018-07-31T13:18:27.198Z,2.47
2018-07-31T13:23:32.293Z,2.33
2018-07-31T13:28:36.853Z,2.77
2018-07-31T13:33:41.570Z,2.17
2018-07-31T13:38:46.477Z,2.00
2018-07-31T13:43:51.257Z,2.17
2018-07-31T13:48:55.206Z,2.40
2018-07-31T13:53:59.066Z,2.17
2018-07-31T13:59:02.670Z,2.47
2018-07-31T14:04:06.534Z,2.20
2018-07-31T14:09:10.986Z,2.53
2018-07-31T14:14:15.635Z,2.40
2018-07-31T14:19:20.516Z,2.30
2018-07-31T14:24:25.184Z,2.93
2018-07-31T14:29:30.402Z,2.53
2018-07-31T14:34:35.023Z,2.60
2018-07-31T14:39:38.657Z,2.53
2018-07-31T14:44:42.234Z,2.50
2018-07-31T14:49:45.746Z,2.60
2018-07-31T14:54:49.423Z,2.17
2018-07-31T14:59:53.256Z,2.17
2018-07-31T15:04:56.853Z,2.10
2018-07-31T15:10:00.357Z,2.00
2018-07-31T15:15:03.991Z,2.37
2018-07-31T15:20:07.624Z,2.60
2018-07-31T15:25:11.209Z,1.73
2018-07-31T15:30:16.288Z,1.90
2018-07-31T15:35:19.992Z,2.20
2018-07-31T15:40:23.471Z,1.83
2018-07-31T15:45:34.645Z,1.97
2018-07-31T15:50:38.245Z,2.30
2018-07-31T15:55:41.751Z,2.23
2018-07-31T16:00:46.284Z,1.93
2018-07-31T16:05:49.843Z,2.23
2018-07-31T16:10:54.346Z,1.77
2018-07-31T16:15:57.919Z,2.20
2018-07-31T16:21:01.701Z,2.03
2018-07-31T16:26:05.260Z,1.60
2018-07-31T16:31:08.551Z,1.80
2018-07-31T16:36:12.110Z,2.10
2018-07-31T16:41:16.463Z,1.70
2018-07-31T16:46:19.991Z,1.93
2018-07-31T16:51:23.786Z,2.37
2018-07-31T16:56:28.275Z,1.97
2018-07-31T17:01:31.896Z,1.87
2018-07-31T17:06:35.444Z,2.00
2018-07-31T17:11:39.036Z,2.37
2018-07-31T17:16:42.627Z,1.70
2018-07-31T17:21:46.244Z,2.13
2018-07-31T17:26:49.919Z,2.10
2018-07-31T17:31:53.492Z,2.00
2018-07-31T17:36:57.199Z,1.93
2018-07-31T17:42:00.772Z,1.87
2018-07-31T17:47:04.416Z,1.70
2018-07-31T17:52:08.029Z,1.80
2018-07-31T17:57:11.554Z,2.30
2018-07-31T18:02:15.139Z,2.73
2018-07-31T18:07:19.040Z,3.13
2018-07-31T18:12:23.454Z,3.17
2018-07-31T18:17:27.045Z,3.47
2018-07-31T18:22:30.993Z,3.40
2018-07-31T18:27:35.806Z,3.97
2018-07-31T18:32:39.937Z,3.73
2018-07-31T18:37:43.641Z,3.83
2018-07-31T18:42:47.225Z,4.03
2018-07-31T18:47:50.889Z,3.37
2018-07-31T18:52:55.093Z,3.60
2018-07-31T18:57:58.916Z,3.70
2018-07-31T19:03:02.560Z,3.80
2018-07-31T19:08:06.205Z,3.70
2018-07-31T19:13:10.886Z,2.90
2018-07-31T19:18:15.246Z,3.90
2018-07-31T19:25:43.926Z,3.42
2018-07-31T19:30:47.439Z,3.57
2018-07-31T19:35:51.909Z,3.13
2018-07-31T19:40:55.478Z,3.13
2018-07-31T19:45:59.028Z,3.90
2018-07-31T19:51:03.451Z,3.30
2018-07-31T19:56:07.238Z,2.60
2018-07-31T20:01:11.691Z,2.83
2018-07-31T20:06:15.369Z,2.90
2018-07-31T20:11:18.881Z,3.30
2018-07-31T20:16:22.649Z,3.57
2018-07-31T20:21:26.145Z,3.50
2018-07-31T20:26:29.893Z,3.53
2018-07-31T20:31:33.508Z,3.43
2018-07-31T20:36:37.320Z,3.17
2018-07-31T20:41:41.623Z,3.20
2018-07-31T20:46:45.151Z,2.77
2018-07-31T20:51:48.727Z,2.63
2018-07-31T20:56:52.388Z,4.57
2018-07-31T21:01:55.959Z,329.73
2018-07-31T21:06:59.573Z,234.73
2018-07-31T21:12:03.256Z,234.90
2018-07-31T21:17:06.878Z,189.80
2018-07-31T21:22:10.425Z,191.97
2018-07-31T21:27:14.738Z,249.50
2018-07-31T21:32:20.500Z,168.20
2018-07-31T21:37:24.292Z,101.80
2018-07-31T21:42:28.365Z,106.80
2018-07-31T21:47:32.057Z,101.07
2018-07-31T21:52:36.082Z,104.10
2018-07-31T21:57:41.140Z,104.53
2018-07-31T22:02:44.660Z,95.03
2018-07-31T22:07:48.975Z,96.93
2018-07-31T22:12:52.656Z,103.27
2018-07-31T22:17:56.241Z,93.57
2018-07-31T22:23:00.387Z,94.13
2018-07-31T22:28:04.009Z,101.77
2018-07-31T22:33:08.451Z,100.63
2018-07-31T22:38:12.792Z,100.63
2018-07-31T22:43:16.697Z,102.33
2018-07-31T22:48:20.619Z,95.30
2018-07-31T22:53:24.833Z,99.77
2018-07-31T22:58:29.003Z,93.83
2018-07-31T23:03:32.549Z,89.33
2018-07-31T23:08:36.124Z,89.93
2018-07-31T23:13:39.877Z,91.60
2018-07-31T23:18:43.548Z,99.00
2018-07-31T23:23:47.705Z,89.70
2018-07-31T23:28:51.699Z,47.63
2018-07-31T23:33:56.149Z,58.57
2018-07-31T23:39:00.633Z,64.63
2018-07-31T23:44:04.379Z,63.80
2018-07-31T23:49:08.006Z,61.33
2018-07-31T23:54:11.724Z,64.23
2018-07-31T23:59:16.127Z,63.47
